Forside
METAR-TAF:

METAR-TAF

Lufthavne :

Rahim Yar Khan, Pakistan

Breddekreds: 28-23-02N, længdekreds: 70-16-47E, højde: 83 m

METAR: fraværende

Tid: 22:18 (17:18 UTC)

Vejrudsigter

Denne rapport blev lavet for 13 timer og 13 minutter siden, kl. 04:05 UTC
Foreløbig gælder fra 23 på 06 UTC til 23 på 24 UTC
Vind 10 kt fra nordøst
Sigt: 5000 m
Spredte skyer i en højde af 12000 ft
røg
Sandsynlighed 30% :
Midlertidig
fra 23 på 18 UTC til 23 på 22 UTC
Vind 15 kt fra nord med vindstød på up til 25 kt
Sigt: 2000 m
Nogle få skyer i en højde af 4000 ft
Spredte skyer i en højde af 12000 ft
lavt drivende støv

TAF: OPRK 230405Z 2306/2324 05010KT 5000 FU SCT120 TX31/2310Z PROB30 TEMPO 2318/2322 36015G25KT 2000 DRDU FEW040 SCT120

Vejrobservationer og prognoser fra mere end 4000 lufthavne (METAR og TAF).

De gule og røde prikker repræsenterer de meteorologiske stationer.

Flyt musen over at se navnet på stationen.

Så klik over at se vejr observationer og prognoser.

At skifte det kort: Klik på de grønne knapper med et sort kors for at zoome ind; på den grønne knap med en bindestreg for at zoome ud; eller på de grønne pile for tilstødende kort.


METAR-TAF: